createdAt,value
2023-04-10T00:01:36.060Z,4.93
2023-04-10T00:04:04.924Z,2.70
2023-04-10T00:06:33.080Z,1.40
2023-04-10T00:09:02.298Z,1.80
2023-04-10T00:11:30.551Z,2.47
2023-04-10T00:13:58.413Z,2.10
2023-04-10T00:16:26.312Z,1.53
2023-04-10T00:18:54.216Z,1.77
2023-04-10T00:21:22.137Z,1.70
2023-04-10T00:23:50.072Z,1.47
2023-04-10T00:26:20.944Z,1.63
2023-04-10T00:28:48.814Z,1.50
2023-04-10T00:31:16.691Z,1.20
2023-04-10T00:33:44.608Z,1.50
2023-04-10T00:36:12.583Z,1.50
2023-04-10T00:38:40.505Z,1.60
2023-04-10T00:41:08.525Z,1.73
2023-04-10T00:43:37.781Z,1.93
2023-04-10T00:46:06.982Z,1.70
2023-04-10T00:48:35.053Z,2.63
2023-04-10T00:51:02.953Z,2.50
2023-04-10T00:53:31.840Z,2.40
2023-04-10T00:55:59.757Z,2.40
2023-04-10T00:58:27.622Z,3.50
2023-04-10T01:00:56.989Z,2.60
2023-04-10T01:03:25.142Z,3.07
2023-04-10T01:05:55.809Z,2.53
2023-04-10T01:08:26.138Z,2.50
2023-04-10T01:10:57.489Z,2.27
2023-04-10T01:13:26.982Z,2.60
2023-04-10T01:15:59.256Z,2.70
2023-04-10T01:18:29.949Z,2.70
2023-04-10T01:20:57.873Z,2.43
2023-04-10T01:23:56.615Z,2.80
2023-04-10T01:26:34.294Z,3.20
2023-04-10T01:29:03.752Z,2.73
2023-04-10T01:31:37.792Z,2.77
2023-04-10T01:34:08.545Z,2.33
2023-04-10T01:36:38.149Z,2.70
2023-04-10T01:39:06.108Z,2.53
2023-04-10T01:41:34.602Z,1.93
2023-04-10T01:44:03.962Z,5.43
2023-04-10T01:46:32.128Z,1.77
2023-04-10T01:49:00.315Z,3.47
2023-04-10T01:51:28.881Z,1.97
2023-04-10T01:53:56.776Z,2.43
2023-04-10T01:56:24.750Z,2.77
2023-04-10T01:58:52.647Z,1.97
2023-04-10T02:01:29.564Z,1.97
2023-04-10T02:03:58.929Z,1.83
2023-04-10T02:06:31.405Z,1.83
2023-04-10T02:09:03.303Z,3.40
2023-04-10T02:11:35.430Z,2.93
2023-04-10T02:14:04.724Z,1.70
2023-04-10T02:16:34.083Z,2.20
2023-04-10T02:19:02.409Z,1.50
2023-04-10T02:21:31.191Z,1.77
2023-04-10T02:23:59.216Z,3.07
2023-04-10T02:26:27.274Z,3.10
2023-04-10T02:28:55.972Z,5.37
2023-04-10T02:31:23.965Z,2.07
2023-04-10T02:33:53.504Z,2.87
2023-04-10T02:36:21.625Z,1.90
2023-04-10T02:38:49.516Z,3.53
2023-04-10T02:41:17.434Z,1.80
2023-04-10T02:43:45.499Z,1.90
2023-04-10T02:46:13.539Z,1.47
2023-04-10T02:48:41.519Z,1.53
2023-04-10T02:51:10.920Z,5.10
2023-04-10T02:53:38.803Z,1.37
2023-04-10T02:56:09.068Z,2.40
2023-04-10T02:58:37.068Z,1.83
2023-04-10T03:01:06.889Z,2.57
2023-04-10T03:03:34.858Z,1.40
2023-04-10T03:06:02.861Z,1.50
2023-04-10T03:08:32.108Z,1.57
2023-04-10T03:11:00.012Z,1.43
2023-04-10T03:13:27.897Z,1.13
2023-04-10T03:15:55.896Z,2.40
2023-04-10T03:18:23.849Z,1.40
2023-04-10T03:20:51.934Z,1.70
2023-04-10T03:23:19.805Z,1.20
2023-04-10T03:25:53.897Z,1.80
2023-04-10T03:28:21.919Z,1.50
2023-04-10T03:30:49.870Z,1.67
2023-04-10T03:33:17.934Z,1.60
2023-04-10T03:35:47.528Z,1.60
2023-04-10T03:38:15.552Z,1.50
2023-04-10T03:40:43.540Z,1.90
2023-04-10T03:43:12.887Z,1.80
2023-04-10T03:45:40.808Z,2.10
2023-04-10T03:48:08.787Z,2.00
2023-04-10T03:50:36.812Z,2.77
2023-04-10T03:53:04.816Z,2.23
2023-04-10T03:55:33.242Z,2.10
2023-04-10T03:58:01.205Z,2.40
2023-04-10T04:00:30.574Z,2.20
2023-04-10T04:02:58.897Z,2.13
2023-04-10T04:05:27.707Z,2.57
2023-04-10T04:07:55.579Z,2.13
2023-04-10T04:10:24.069Z,1.80
2023-04-10T04:12:51.941Z,1.60
2023-04-10T04:15:21.706Z,1.50
2023-04-10T04:17:51.036Z,1.43
2023-04-10T04:20:18.940Z,1.50
2023-04-10T04:22:46.905Z,1.20
2023-04-10T04:25:14.898Z,1.37
2023-04-10T04:27:42.871Z,1.63
2023-04-10T04:30:11.833Z,1.80
2023-04-10T04:32:39.774Z,1.73
2023-04-10T04:35:10.261Z,1.60
2023-04-10T04:37:38.152Z,3.60
2023-04-10T04:40:07.235Z,4.07
2023-04-10T04:42:35.877Z,12.70
2023-04-10T04:45:03.816Z,12.63
2023-04-10T04:47:31.801Z,17.07
2023-04-10T04:49:59.685Z,19.60
2023-04-10T04:52:29.539Z,19.07
2023-04-10T04:54:57.580Z,10.67
2023-04-10T04:57:25.536Z,7.23
2023-04-10T04:59:53.498Z,1.63
2023-04-10T05:02:22.811Z,4.00
2023-04-10T05:04:51.071Z,1.77
2023-04-10T05:07:19.007Z,1.20
2023-04-10T05:09:48.254Z,1.83
2023-04-10T05:12:16.410Z,1.80
2023-04-10T05:14:44.273Z,3.63
2023-04-10T05:17:12.163Z,3.27
2023-04-10T05:19:40.251Z,1.40
2023-04-10T05:22:10.432Z,0.97
2023-04-10T05:24:38.351Z,1.20
2023-04-10T05:27:07.802Z,1.37
2023-04-10T05:29:35.788Z,1.97
2023-04-10T05:32:04.861Z,2.97
2023-04-10T05:34:33.045Z,2.40
2023-04-10T05:37:00.898Z,3.40
2023-04-10T05:39:28.790Z,1.63
2023-04-10T05:41:56.763Z,4.40
2023-04-10T05:44:26.071Z,6.67
2023-04-10T05:46:54.066Z,3.00
2023-04-10T05:49:22.508Z,1.53
2023-04-10T05:51:52.011Z,6.43
2023-04-10T05:54:19.925Z,5.80
2023-04-10T05:56:47.802Z,6.13
2023-04-10T05:59:15.731Z,10.40
2023-04-10T06:01:45.701Z,30.27
2023-04-10T06:04:13.976Z,25.97
2023-04-10T06:06:42.090Z,17.00
2023-04-10T06:09:10.099Z,14.13
2023-04-10T06:11:38.074Z,14.83
2023-04-10T06:14:06.143Z,16.43
2023-04-10T06:16:34.074Z,18.60
2023-04-10T06:19:03.449Z,14.30
2023-04-10T06:21:31.793Z,23.40
2023-04-10T06:23:59.695Z,14.83
2023-04-10T06:26:27.601Z,16.47
2023-04-10T06:28:56.284Z,16.03
2023-04-10T06:31:24.339Z,8.57
2023-04-10T06:33:52.338Z,17.60
2023-04-10T06:36:21.777Z,17.37
2023-04-10T06:38:49.676Z,23.77
2023-04-10T06:41:17.567Z,24.47
2023-04-10T06:43:46.083Z,8.63
2023-04-10T06:46:14.315Z,19.23
2023-04-10T06:48:42.281Z,16.27
2023-04-10T06:51:10.427Z,15.43
2023-04-10T06:53:39.680Z,17.80
2023-04-10T06:56:08.253Z,17.43
2023-04-10T06:58:36.315Z,17.10
2023-04-10T07:01:06.135Z,23.07
2023-04-10T07:03:34.166Z,20.20
2023-04-10T07:06:03.293Z,21.73
2023-04-10T07:08:31.392Z,19.13
2023-04-10T07:11:00.711Z,21.40
2023-04-10T07:13:28.712Z,19.70
2023-04-10T07:15:56.881Z,20.90
2023-04-10T07:18:31.817Z,25.47
2023-04-10T07:20:59.674Z,23.30
2023-04-10T07:23:27.567Z,17.20
2023-04-10T07:25:56.485Z,18.90
2023-04-10T07:28:26.343Z,18.47
2023-04-10T07:30:54.303Z,15.70
2023-04-10T07:33:22.284Z,16.23
2023-04-10T07:35:50.690Z,16.63
2023-04-10T07:38:19.107Z,18.87
2023-04-10T07:40:46.979Z,22.13
2023-04-10T07:43:14.914Z,32.07
2023-04-10T07:45:44.251Z,24.17
2023-04-10T07:48:12.772Z,29.10
2023-04-10T07:50:40.814Z,28.47
2023-04-10T07:53:11.210Z,35.50
2023-04-10T07:55:39.550Z,24.47
2023-04-10T07:58:07.426Z,32.37
2023-04-10T08:00:35.503Z,25.73
2023-04-10T08:03:05.684Z,33.73
2023-04-10T08:05:33.802Z,33.40
2023-04-10T08:08:01.999Z,29.13
2023-04-10T08:10:30.191Z,36.37
2023-04-10T08:12:58.055Z,28.00
2023-04-10T08:15:26.090Z,32.50
2023-04-10T08:17:54.108Z,40.10
2023-04-10T08:20:23.893Z,30.17
2023-04-10T08:22:51.827Z,30.50
2023-04-10T08:25:19.803Z,30.30
2023-04-10T08:27:47.665Z,29.90
2023-04-10T08:30:15.541Z,34.20
2023-04-10T08:32:43.469Z,27.17
2023-04-10T08:35:11.447Z,24.80
2023-04-10T08:37:40.846Z,30.17
2023-04-10T08:40:09.884Z,24.27
2023-04-10T08:42:38.103Z,24.03
2023-04-10T08:45:06.713Z,36.00
2023-04-10T08:47:36.709Z,20.83
2023-04-10T08:50:07.757Z,23.93
2023-04-10T08:52:36.214Z,36.27
2023-04-10T08:55:08.021Z,23.47
2023-04-10T08:57:38.852Z,23.13
2023-04-10T09:03:00.345Z,23.33
2023-04-10T09:05:28.421Z,24.03
2023-04-10T09:07:56.339Z,26.87
2023-04-10T09:10:25.842Z,21.73
2023-04-10T09:12:53.792Z,27.03
2023-04-10T09:15:21.914Z,30.43
2023-04-10T09:17:57.477Z,26.40
2023-04-10T09:20:27.031Z,20.20
2023-04-10T09:22:55.046Z,19.80
2023-04-10T09:25:34.913Z,18.37
2023-04-10T09:28:03.919Z,18.00
2023-04-10T09:30:39.342Z,22.37
2023-04-10T09:33:23.715Z,24.17
2023-04-10T09:35:51.834Z,22.53
2023-04-10T09:38:20.593Z,23.63
2023-04-10T09:40:50.445Z,23.50
2023-04-10T09:43:23.390Z,24.07
2023-04-10T09:45:52.171Z,16.00
2023-04-10T09:48:20.576Z,18.80
2023-04-10T09:50:48.633Z,16.60
2023-04-10T09:53:17.201Z,28.53
2023-04-10T09:55:45.207Z,20.83
2023-04-10T09:58:14.543Z,28.80
2023-04-10T10:00:43.261Z,22.93
2023-04-10T10:03:12.736Z,11.60
2023-04-10T10:05:42.002Z,26.73
2023-04-10T10:08:11.396Z,15.97
2023-04-10T10:10:42.127Z,29.97
2023-04-10T10:13:10.030Z,17.27
2023-04-10T10:15:41.556Z,21.70
2023-04-10T10:18:18.962Z,19.30
2023-04-10T10:20:47.379Z,13.83
2023-04-10T10:23:15.332Z,19.73
2023-04-10T10:25:43.299Z,16.30
2023-04-10T10:28:11.563Z,13.53
2023-04-10T10:30:40.962Z,21.23
2023-04-10T10:33:09.576Z,22.50
2023-04-10T10:35:37.717Z,22.53
2023-04-10T10:38:05.928Z,16.17
2023-04-10T10:40:35.473Z,17.93
2023-04-10T10:43:09.899Z,21.43
2023-04-10T10:45:41.989Z,13.07
2023-04-10T10:48:11.333Z,13.33
2023-04-10T10:50:57.415Z,23.17
2023-04-10T10:53:36.125Z,16.50
2023-04-10T10:56:36.163Z,15.90
2023-04-10T10:59:04.300Z,11.63
2023-04-10T11:01:33.782Z,25.50
2023-04-10T11:04:02.392Z,26.07
2023-04-10T11:06:54.336Z,18.30
2023-04-10T11:09:45.953Z,20.27
2023-04-10T11:12:14.349Z,23.73
2023-04-10T11:14:43.142Z,26.53
2023-04-10T11:17:12.793Z,22.90
2023-04-10T11:20:00.514Z,19.03
2023-04-10T11:22:29.077Z,18.77
2023-04-10T11:25:02.021Z,34.13
2023-04-10T11:27:40.551Z,19.70
2023-04-10T11:30:33.198Z,17.57
2023-04-10T11:33:03.593Z,21.10
2023-04-10T11:35:32.562Z,14.97
2023-04-10T11:38:13.270Z,18.10
2023-04-10T11:41:02.907Z,18.07
2023-04-10T11:43:31.431Z,20.77
2023-04-10T11:46:07.696Z,21.50
2023-04-10T11:48:38.361Z,13.70
2023-04-10T11:51:10.741Z,12.20
2023-04-10T11:53:39.514Z,5.47
2023-04-10T11:56:13.155Z,13.03
2023-04-10T11:58:44.279Z,8.83
2023-04-10T12:01:14.657Z,9.83
2023-04-10T12:03:44.951Z,10.97
2023-04-10T12:06:13.933Z,12.93
2023-04-10T12:08:42.438Z,8.17
2023-04-10T12:11:11.346Z,14.40
2023-04-10T12:13:39.518Z,15.97
2023-04-10T12:16:09.477Z,10.43
2023-04-10T12:18:37.586Z,10.33
2023-04-10T12:21:08.543Z,9.90
2023-04-10T12:23:38.682Z,6.57
2023-04-10T12:26:11.927Z,12.80
2023-04-10T12:28:40.680Z,19.63
2023-04-10T12:31:09.305Z,14.50
2023-04-10T12:33:37.880Z,19.83
2023-04-10T12:36:08.023Z,18.83
2023-04-10T12:38:37.161Z,11.90
2023-04-10T12:41:05.260Z,10.60
2023-04-10T12:43:34.965Z,18.83
2023-04-10T12:46:03.122Z,6.73
2023-04-10T12:48:31.280Z,13.80
2023-04-10T12:50:59.432Z,13.33
2023-04-10T12:53:29.042Z,15.40
2023-04-10T12:56:01.030Z,12.77
2023-04-10T12:58:31.003Z,18.73
2023-04-10T13:01:00.095Z,22.57
2023-04-10T13:03:28.179Z,8.47
2023-04-10T13:05:56.353Z,12.60
2023-04-10T13:08:24.343Z,9.83
2023-04-10T13:10:55.051Z,15.83
2023-04-10T13:13:23.124Z,11.47
2023-04-10T13:15:51.312Z,19.73
2023-04-10T13:18:19.359Z,17.43
2023-04-10T13:20:47.477Z,15.80
2023-04-10T13:23:15.413Z,15.03
2023-04-10T13:25:43.417Z,7.57
2023-04-10T13:28:12.720Z,15.27
2023-04-10T13:30:42.199Z,16.23
2023-04-10T13:33:10.427Z,18.83
2023-04-10T13:35:40.445Z,18.07
2023-04-10T13:38:09.558Z,27.60
2023-04-10T13:40:37.603Z,24.37
2023-04-10T13:43:06.660Z,26.13
2023-04-10T13:45:36.043Z,17.03
2023-04-10T13:48:04.197Z,19.53
2023-04-10T13:50:32.528Z,24.03
2023-04-10T13:53:00.651Z,16.63
2023-04-10T13:55:28.865Z,20.70
2023-04-10T13:57:56.903Z,10.10
2023-04-10T14:00:25.224Z,10.13
2023-04-10T14:02:55.001Z,25.97
2023-04-10T14:05:22.991Z,20.00
2023-04-10T14:07:51.956Z,11.27
2023-04-10T14:10:20.943Z,17.07
2023-04-10T14:12:48.941Z,10.10
2023-04-10T14:15:17.006Z,22.63
2023-04-10T14:17:45.061Z,13.37
2023-04-10T14:20:14.643Z,13.07
2023-04-10T14:22:42.725Z,12.67
2023-04-10T14:25:15.931Z,17.30
2023-04-10T14:27:44.218Z,12.57
2023-04-10T14:30:12.687Z,14.13
2023-04-10T14:32:40.695Z,8.30
2023-04-10T14:35:09.540Z,23.57
2023-04-10T14:37:39.135Z,20.90
2023-04-10T14:40:08.976Z,18.53
2023-04-10T14:42:37.286Z,14.50
2023-04-10T14:45:06.337Z,15.87
2023-04-10T14:47:36.009Z,15.47
2023-04-10T14:50:04.537Z,14.57
2023-04-10T14:52:32.518Z,7.00
2023-04-10T14:55:02.023Z,12.03
2023-04-10T14:57:30.947Z,18.07
2023-04-10T15:00:01.388Z,7.13
2023-04-10T15:02:30.038Z,20.10
2023-04-10T15:04:58.211Z,15.97
2023-04-10T15:07:28.216Z,15.07
2023-04-10T15:09:57.682Z,20.40
2023-04-10T15:12:27.191Z,17.17
2023-04-10T15:14:55.244Z,19.03
2023-04-10T15:17:23.941Z,14.63
2023-04-10T15:19:52.183Z,12.60
2023-04-10T15:22:20.119Z,18.40
2023-04-10T15:24:50.841Z,16.43
2023-04-10T15:27:20.485Z,19.33
2023-04-10T15:29:49.936Z,17.87
2023-04-10T15:32:17.852Z,10.10
2023-04-10T15:34:45.915Z,8.53
2023-04-10T15:37:13.844Z,14.00
2023-04-10T15:39:41.809Z,16.43
2023-04-10T15:42:09.856Z,18.97
2023-04-10T15:44:37.800Z,18.23
2023-04-10T15:47:07.230Z,9.80
2023-04-10T15:49:38.445Z,8.30
2023-04-10T15:52:06.987Z,21.03
2023-04-10T15:54:35.123Z,14.67
2023-04-10T15:57:03.358Z,21.10
2023-04-10T15:59:31.437Z,28.33
2023-04-10T16:01:59.465Z,17.43
2023-04-10T16:04:29.312Z,16.50
2023-04-10T16:06:57.378Z,17.67
2023-04-10T16:09:26.631Z,14.90
2023-04-10T16:11:54.763Z,15.63
2023-04-10T16:14:23.116Z,18.57
2023-04-10T16:16:51.289Z,20.77
2023-04-10T16:19:19.243Z,18.17
2023-04-10T16:21:48.697Z,16.80
2023-04-10T16:24:16.717Z,10.63
2023-04-10T16:26:44.616Z,19.20
2023-04-10T16:29:12.514Z,18.53
2023-04-10T16:31:40.599Z,22.63
2023-04-10T16:34:08.598Z,15.43
2023-04-10T16:36:36.616Z,12.67
2023-04-10T16:39:07.423Z,11.73
2023-04-10T16:41:35.459Z,14.43
2023-04-10T16:44:03.989Z,19.30
2023-04-10T16:46:33.205Z,15.13
2023-04-10T16:49:01.649Z,43.83
2023-04-10T16:51:29.714Z,12.20
2023-04-10T16:53:57.783Z,20.60
2023-04-10T16:56:27.405Z,19.87
2023-04-10T16:58:55.588Z,21.07
2023-04-10T17:01:25.550Z,14.23
2023-04-10T17:03:54.000Z,15.87
2023-04-10T17:06:22.165Z,12.77
2023-04-10T17:08:50.369Z,15.03
2023-04-10T17:11:18.291Z,15.27
2023-04-10T17:13:47.768Z,16.83
2023-04-10T17:16:15.886Z,15.43
2023-04-10T17:18:43.936Z,14.67
2023-04-10T17:21:12.369Z,15.33
2023-04-10T17:23:40.510Z,17.20
2023-04-10T17:26:11.665Z,17.57
2023-04-10T17:28:39.780Z,14.53
2023-04-10T17:31:09.367Z,17.63
2023-04-10T17:33:37.407Z,17.33
2023-04-10T17:36:05.822Z,23.60
2023-04-10T17:38:33.941Z,24.47
2023-04-10T17:41:02.040Z,17.90
2023-04-10T17:43:30.306Z,25.47
2023-04-10T17:45:58.425Z,20.50
2023-04-10T17:48:28.023Z,16.70
2023-04-10T17:50:56.209Z,17.67
2023-04-10T17:53:24.156Z,30.80
2023-04-10T17:55:52.147Z,24.50
2023-04-10T17:58:20.230Z,16.43
2023-04-10T18:00:48.806Z,18.67
2023-04-10T18:03:17.287Z,17.50
2023-04-10T18:05:46.839Z,25.93
2023-04-10T18:08:19.329Z,13.47
2023-04-10T18:10:47.343Z,24.67
2023-04-10T18:13:15.354Z,19.73
2023-04-10T18:15:43.550Z,29.73
2023-04-10T18:18:11.570Z,15.10
2023-04-10T18:20:39.665Z,22.33
2023-04-10T18:23:09.044Z,19.77
2023-04-10T18:25:36.948Z,21.97
2023-04-10T18:28:14.433Z,21.03
2023-04-10T18:30:44.776Z,21.50
2023-04-10T18:33:23.790Z,24.43
2023-04-10T18:35:52.002Z,18.73
2023-04-10T18:38:21.476Z,21.83
2023-04-10T18:40:49.507Z,13.87
2023-04-10T18:43:17.791Z,11.90
2023-04-10T18:45:45.828Z,12.30
2023-04-10T18:48:13.818Z,18.47
2023-04-10T18:50:41.987Z,23.97
2023-04-10T18:53:09.965Z,16.00
2023-04-10T18:55:39.306Z,19.33
2023-04-10T18:58:07.312Z,9.70
2023-04-10T19:00:35.299Z,20.30
2023-04-10T19:03:03.436Z,14.93
2023-04-10T19:05:32.736Z,16.33
2023-04-10T19:08:04.694Z,16.60
2023-04-10T19:10:33.108Z,11.63
2023-04-10T19:13:02.490Z,8.33
2023-04-10T19:15:30.388Z,15.27
2023-04-10T19:17:58.592Z,17.30
2023-04-10T19:20:51.209Z,23.50
2023-04-10T19:23:15.086Z,22.73
2023-04-10T19:25:43.718Z,11.50
2023-04-10T19:28:13.139Z,8.33
2023-04-10T19:30:41.171Z,17.17
2023-04-10T19:33:09.037Z,16.77
2023-04-10T19:35:37.196Z,23.10
2023-04-10T19:38:05.338Z,14.20
2023-04-10T19:40:33.330Z,10.40
2023-04-10T19:43:02.127Z,15.47
2023-04-10T19:45:32.539Z,13.80
2023-04-10T19:48:01.170Z,14.63
2023-04-10T19:50:30.388Z,15.23
2023-04-10T19:52:59.566Z,16.33
2023-04-10T19:55:27.830Z,18.47
2023-04-10T19:57:56.007Z,19.40
2023-04-10T20:00:23.978Z,9.47
2023-04-10T20:02:54.491Z,12.63
2023-04-10T20:05:22.641Z,20.77
2023-04-10T20:07:50.586Z,21.00
2023-04-10T20:10:18.638Z,19.53
2023-04-10T20:12:46.619Z,16.57
2023-04-10T20:15:14.525Z,18.97
2023-04-10T20:17:42.467Z,17.57
2023-04-10T20:20:13.578Z,14.10
2023-04-10T20:22:41.763Z,29.60
2023-04-10T20:25:10.500Z,17.93
2023-04-10T20:27:38.539Z,22.57
2023-04-10T20:30:07.834Z,16.97
2023-04-10T20:32:35.740Z,8.13
2023-04-10T20:35:03.581Z,21.10
2023-04-10T20:37:32.944Z,17.70
2023-04-10T20:40:00.923Z,14.60
2023-04-10T20:42:28.906Z,17.37
2023-04-10T20:44:57.099Z,13.30
2023-04-10T20:47:25.025Z,12.67
2023-04-10T20:49:52.909Z,6.00
2023-04-10T20:52:20.860Z,9.67
2023-04-10T20:54:50.277Z,20.03
2023-04-10T20:57:18.332Z,8.70
2023-04-10T20:59:46.474Z,16.73
2023-04-10T21:02:14.485Z,13.57
2023-04-10T21:04:42.399Z,17.67
2023-04-10T21:07:10.403Z,16.90
2023-04-10T21:09:38.246Z,14.17
2023-04-10T21:12:07.780Z,14.93
2023-04-10T21:14:36.493Z,15.33
2023-04-10T21:17:04.467Z,17.60
2023-04-10T21:19:32.315Z,17.83
2023-04-10T21:22:00.419Z,17.33
2023-04-10T21:24:29.484Z,16.77
2023-04-10T21:26:57.426Z,18.53
2023-04-10T21:29:26.787Z,20.53
2023-04-10T21:31:54.845Z,9.67
2023-04-10T21:34:22.816Z,12.50
2023-04-10T21:36:50.761Z,23.90
2023-04-10T21:39:18.753Z,22.07
2023-04-10T21:41:46.612Z,14.07
2023-04-10T21:44:14.520Z,15.83
2023-04-10T21:46:43.776Z,11.57
2023-04-10T21:49:11.885Z,15.37
2023-04-10T21:51:40.643Z,9.73
2023-04-10T21:54:08.528Z,15.30
2023-04-10T21:56:38.724Z,20.30
2023-04-10T21:59:06.775Z,19.23
2023-04-10T22:01:34.878Z,24.17
2023-04-10T22:04:04.533Z,21.30
2023-04-10T22:06:32.883Z,13.73
2023-04-10T22:09:00.758Z,16.03
2023-04-10T22:11:28.752Z,14.40
2023-04-10T22:14:00.112Z,26.60
2023-04-10T22:16:31.025Z,17.97
2023-04-10T22:18:59.026Z,16.50
2023-04-10T22:21:28.488Z,13.83
2023-04-10T22:23:56.419Z,20.27
2023-04-10T22:26:24.677Z,18.93
2023-04-10T22:28:52.747Z,17.57
2023-04-10T22:31:21.356Z,16.97
2023-04-10T22:33:50.286Z,13.30
2023-04-10T22:36:18.137Z,14.83
2023-04-10T22:38:47.419Z,21.07
2023-04-10T22:41:15.764Z,24.80
2023-04-10T22:43:43.686Z,22.57
2023-04-10T22:46:11.591Z,14.43
2023-04-10T22:48:39.835Z,20.93
2023-04-10T22:51:11.526Z,15.60
2023-04-10T22:53:39.397Z,15.17
2023-04-10T22:56:09.882Z,34.00
2023-04-10T22:58:39.228Z,19.87
2023-04-10T23:01:08.363Z,23.37
2023-04-10T23:03:36.738Z,18.63
2023-04-10T23:06:04.875Z,14.83
2023-04-10T23:08:32.796Z,13.47
2023-04-10T23:11:00.730Z,19.70
2023-04-10T23:13:30.052Z,22.90
2023-04-10T23:15:57.970Z,26.67
2023-04-10T23:18:25.913Z,36.57
2023-04-10T23:20:53.906Z,18.13
2023-04-10T23:23:21.870Z,14.17
2023-04-10T23:25:57.973Z,13.20
2023-04-10T23:28:25.992Z,16.17
2023-04-10T23:30:55.376Z,12.50
2023-04-10T23:33:23.473Z,10.80
2023-04-10T23:35:51.378Z,16.80
2023-04-10T23:38:19.273Z,12.07
2023-04-10T23:40:47.408Z,24.50
2023-04-10T23:43:15.370Z,15.77
2023-04-10T23:45:43.268Z,17.10
2023-04-10T23:48:12.764Z,17.00
2023-04-10T23:50:40.648Z,18.30
2023-04-10T23:53:09.300Z,14.47
2023-04-10T23:55:37.276Z,13.83
2023-04-10T23:58:05.218Z,24.93
